sensor_id;sensor_type;location;lat;lon;timestamp;P1;P2;P0
80499;PMS5003;69823;54.120;-4.710;2023-08-21T00:00:02;2;1;
80499;PMS5003;69823;54.120;-4.710;2023-08-21T00:02:27;0;0;
80499;PMS5003;69823;54.120;-4.710;2023-08-21T00:04:53;1;1;
80499;PMS5003;69823;54.120;-4.710;2023-08-21T00:07:19;2;2;
80499;PMS5003;69823;54.120;-4.710;2023-08-21T00:09:44;1;0;
80499;PMS5003;69823;54.120;-4.710;2023-08-21T00:12:10;1;1;
80499;PMS5003;69823;54.120;-4.710;2023-08-21T00:14:35;8;5;
80499;PMS5003;69823;54.120;-4.710;2023-08-21T00:17:01;1;0;
80499;PMS5003;69823;54.120;-4.710;2023-08-21T00:19:26;0;0;
80499;PMS5003;69823;54.120;-4.710;2023-08-21T00:21:52;3;2;
80499;PMS5003;69823;54.120;-4.710;2023-08-21T00:24:17;1;0;
80499;PMS5003;69823;54.120;-4.710;2023-08-21T00:26:43;3;2;
80499;PMS5003;69823;54.120;-4.710;2023-08-21T00:29:09;0;0;
80499;PMS5003;69823;54.120;-4.710;2023-08-21T00:31:34;0;0;
80499;PMS5003;69823;54.120;-4.710;2023-08-21T00:34:00;1;1;
80499;PMS5003;69823;54.120;-4.710;2023-08-21T00:36:26;1;1;
80499;PMS5003;69823;54.120;-4.710;2023-08-21T00:38:51;1;1;
80499;PMS5003;69823;54.120;-4.710;2023-08-21T00:41:17;3;2;
80499;PMS5003;69823;54.120;-4.710;2023-08-21T00:43:43;1;1;
80499;PMS5003;69823;54.120;-4.710;2023-08-21T00:46:08;1;0;
80499;PMS5003;69823;54.120;-4.710;2023-08-21T00:48:34;2;2;
80499;PMS5003;69823;54.120;-4.710;2023-08-21T00:51:00;0;0;
80499;PMS5003;69823;54.120;-4.710;2023-08-21T00:53:25;1;1;
80499;PMS5003;69823;54.120;-4.710;2023-08-21T00:55:51;2;2;
80499;PMS5003;69823;54.120;-4.710;2023-08-21T00:58:17;1;1;
80499;PMS5003;69823;54.120;-4.710;2023-08-21T01:00:43;2;1;
80499;PMS5003;69823;54.120;-4.710;2023-08-21T01:03:08;1;1;
80499;PMS5003;69823;54.120;-4.710;2023-08-21T01:05:34;2;1;
80499;PMS5003;69823;54.120;-4.710;2023-08-21T01:08:01;2;2;
80499;PMS5003;69823;54.120;-4.710;2023-08-21T01:10:27;0;0;
80499;PMS5003;69823;54.120;-4.710;2023-08-21T01:12:52;1;0;
80499;PMS5003;69823;54.120;-4.710;2023-08-21T01:15:16;1;0;
80499;PMS5003;69823;54.120;-4.710;2023-08-21T01:17:42;1;1;
80499;PMS5003;69823;54.120;-4.710;2023-08-21T01:20:08;1;1;
80499;PMS5003;69823;54.120;-4.710;2023-08-21T01:22:35;2;1;
80499;PMS5003;69823;54.120;-4.710;2023-08-21T01:24:59;0;0;
80499;PMS5003;69823;54.120;-4.710;2023-08-21T01:27:25;1;1;
80499;PMS5003;69823;54.120;-4.710;2023-08-21T01:29:50;2;1;
80499;PMS5003;69823;54.120;-4.710;2023-08-21T01:32:20;2;2;
80499;PMS5003;69823;54.120;-4.710;2023-08-21T01:34:42;0;0;
80499;PMS5003;69823;54.120;-4.710;2023-08-21T01:37:07;0;0;
80499;PMS5003;69823;54.120;-4.710;2023-08-21T01:39:33;1;1;
80499;PMS5003;69823;54.120;-4.710;2023-08-21T01:41:59;2;1;
80499;PMS5003;69823;54.120;-4.710;2023-08-21T01:44:24;0;0;
80499;PMS5003;69823;54.120;-4.710;2023-08-21T01:46:50;2;2;
80499;PMS5003;69823;54.120;-4.710;2023-08-21T01:49:15;0;0;
80499;PMS5003;69823;54.120;-4.710;2023-08-21T01:51:41;1;1;
80499;PMS5003;69823;54.120;-4.710;2023-08-21T01:54:07;0;0;
80499;PMS5003;69823;54.120;-4.710;2023-08-21T01:56:32;0;0;
80499;PMS5003;69823;54.120;-4.710;2023-08-21T01:58:58;2;1;
80499;PMS5003;69823;54.120;-4.710;2023-08-21T02:01:24;0;0;
80499;PMS5003;69823;54.120;-4.710;2023-08-21T02:03:49;1;1;
80499;PMS5003;69823;54.120;-4.710;2023-08-21T02:06:15;2;1;
80499;PMS5003;69823;54.120;-4.710;2023-08-21T02:08:40;3;3;
80499;PMS5003;69823;54.120;-4.710;2023-08-21T02:11:06;1;1;
80499;PMS5003;69823;54.120;-4.710;2023-08-21T02:13:32;0;0;
80499;PMS5003;69823;54.120;-4.710;2023-08-21T02:15:57;0;0;
80499;PMS5003;69823;54.120;-4.710;2023-08-21T02:18:23;0;0;
80499;PMS5003;69823;54.120;-4.710;2023-08-21T02:20:49;2;1;
80499;PMS5003;69823;54.120;-4.710;2023-08-21T02:23:14;1;0;
80499;PMS5003;69823;54.120;-4.710;2023-08-21T02:25:40;2;1;
80499;PMS5003;69823;54.120;-4.710;2023-08-21T02:28:06;0;0;
80499;PMS5003;69823;54.120;-4.710;2023-08-21T02:30:31;1;1;
80499;PMS5003;69823;54.120;-4.710;2023-08-21T02:32:57;1;1;
80499;PMS5003;69823;54.120;-4.710;2023-08-21T02:35:23;3;1;
80499;PMS5003;69823;54.120;-4.710;2023-08-21T02:37:49;1;1;
80499;PMS5003;69823;54.120;-4.710;2023-08-21T02:40:14;0;0;
80499;PMS5003;69823;54.120;-4.710;2023-08-21T02:42:40;1;0;
80499;PMS5003;69823;54.120;-4.710;2023-08-21T02:45:06;0;0;
80499;PMS5003;69823;54.120;-4.710;2023-08-21T02:47:31;1;1;
80499;PMS5003;69823;54.120;-4.710;2023-08-21T02:49:57;0;0;
80499;PMS5003;69823;54.120;-4.710;2023-08-21T02:52:23;1;1;
80499;PMS5003;69823;54.120;-4.710;2023-08-21T02:54:48;0;0;
80499;PMS5003;69823;54.120;-4.710;2023-08-21T02:57:14;1;1;
80499;PMS5003;69823;54.120;-4.710;2023-08-21T02:59:39;1;1;
80499;PMS5003;69823;54.120;-4.710;2023-08-21T03:02:05;1;1;
80499;PMS5003;69823;54.120;-4.710;2023-08-21T03:04:31;1;1;
80499;PMS5003;69823;54.120;-4.710;2023-08-21T03:06:56;0;0;
80499;PMS5003;69823;54.120;-4.710;2023-08-21T03:09:22;3;1;
80499;PMS5003;69823;54.120;-4.710;2023-08-21T03:11:48;1;0;
80499;PMS5003;69823;54.120;-4.710;2023-08-21T03:14:14;2;0;
80499;PMS5003;69823;54.120;-4.710;2023-08-21T03:16:39;1;1;
80499;PMS5003;69823;54.120;-4.710;2023-08-21T03:19:05;1;1;
80499;PMS5003;69823;54.120;-4.710;2023-08-21T03:21:31;0;0;
80499;PMS5003;69823;54.120;-4.710;2023-08-21T03:23:57;1;1;
80499;PMS5003;69823;54.120;-4.710;2023-08-21T03:26:22;0;0;
80499;PMS5003;69823;54.120;-4.710;2023-08-21T03:28:48;1;1;
80499;PMS5003;69823;54.120;-4.710;2023-08-21T03:31:13;1;1;
80499;PMS5003;69823;54.120;-4.710;2023-08-21T03:33:39;0;0;
80499;PMS5003;69823;54.120;-4.710;2023-08-21T03:36:05;1;1;
80499;PMS5003;69823;54.120;-4.710;2023-08-21T03:38:30;0;0;
80499;PMS5003;69823;54.120;-4.710;2023-08-21T03:40:56;1;1;
80499;PMS5003;69823;54.120;-4.710;2023-08-21T03:43:22;1;0;
80499;PMS5003;69823;54.120;-4.710;2023-08-21T03:45:47;3;1;
80499;PMS5003;69823;54.120;-4.710;2023-08-21T03:48:13;1;1;
80499;PMS5003;69823;54.120;-4.710;2023-08-21T03:50:39;1;1;
80499;PMS5003;69823;54.120;-4.710;2023-08-21T03:53:04;0;0;
80499;PMS5003;69823;54.120;-4.710;2023-08-21T03:55:30;0;0;
80499;PMS5003;69823;54.120;-4.710;2023-08-21T03:57:56;1;1;
80499;PMS5003;69823;54.120;-4.710;2023-08-21T04:00:21;1;1;
80499;PMS5003;69823;54.120;-4.710;2023-08-21T04:02:47;2;1;
80499;PMS5003;69823;54.120;-4.710;2023-08-21T04:05:13;1;1;
80499;PMS5003;69823;54.120;-4.710;2023-08-21T04:07:38;0;0;
80499;PMS5003;69823;54.120;-4.710;2023-08-21T04:10:04;0;0;
80499;PMS5003;69823;54.120;-4.710;2023-08-21T04:12:30;1;0;
80499;PMS5003;69823;54.120;-4.710;2023-08-21T04:14:55;1;1;
80499;PMS5003;69823;54.120;-4.710;2023-08-21T04:17:21;1;1;
80499;PMS5003;69823;54.120;-4.710;2023-08-21T04:19:47;1;1;
80499;PMS5003;69823;54.120;-4.710;2023-08-21T04:22:12;1;1;
80499;PMS5003;69823;54.120;-4.710;2023-08-21T04:24:38;0;0;
80499;PMS5003;69823;54.120;-4.710;2023-08-21T04:27:04;0;0;
80499;PMS5003;69823;54.120;-4.710;2023-08-21T04:29:29;1;1;
80499;PMS5003;69823;54.120;-4.710;2023-08-21T04:31:55;1;0;
80499;PMS5003;69823;54.120;-4.710;2023-08-21T04:34:21;0;0;
80499;PMS5003;69823;54.120;-4.710;2023-08-21T04:36:46;1;1;
80499;PMS5003;69823;54.120;-4.710;2023-08-21T04:39:12;1;1;
80499;PMS5003;69823;54.120;-4.710;2023-08-21T04:41:39;0;0;
80499;PMS5003;69823;54.120;-4.710;2023-08-21T04:44:03;0;0;
80499;PMS5003;69823;54.120;-4.710;2023-08-21T04:46:29;1;1;
80499;PMS5003;69823;54.120;-4.710;2023-08-21T04:48:55;1;1;
80499;PMS5003;69823;54.120;-4.710;2023-08-21T04:51:20;1;1;
80499;PMS5003;69823;54.120;-4.710;2023-08-21T04:53:46;0;0;
80499;PMS5003;69823;54.120;-4.710;2023-08-21T04:56:12;1;1;
80499;PMS5003;69823;54.120;-4.710;2023-08-21T04:58:37;0;0;
80499;PMS5003;69823;54.120;-4.710;2023-08-21T05:01:04;0;0;
80499;PMS5003;69823;54.120;-4.710;2023-08-21T05:03:29;1;1;
80499;PMS5003;69823;54.120;-4.710;2023-08-21T05:05:55;1;1;
80499;PMS5003;69823;54.120;-4.710;2023-08-21T05:08:20;0;0;
80499;PMS5003;69823;54.120;-4.710;2023-08-21T05:10:46;2;1;
80499;PMS5003;69823;54.120;-4.710;2023-08-21T05:13:11;1;0;
80499;PMS5003;69823;54.120;-4.710;2023-08-21T05:15:37;1;1;
80499;PMS5003;69823;54.120;-4.710;2023-08-21T05:18:03;1;1;
80499;PMS5003;69823;54.120;-4.710;2023-08-21T05:20:28;0;0;
80499;PMS5003;69823;54.120;-4.710;2023-08-21T05:22:54;1;1;
80499;PMS5003;69823;54.120;-4.710;2023-08-21T05:25:20;0;0;
80499;PMS5003;69823;54.120;-4.710;2023-08-21T05:27:45;1;1;
80499;PMS5003;69823;54.120;-4.710;2023-08-21T05:30:11;1;1;
80499;PMS5003;69823;54.120;-4.710;2023-08-21T05:32:37;0;0;
80499;PMS5003;69823;54.120;-4.710;2023-08-21T05:35:03;1;1;
80499;PMS5003;69823;54.120;-4.710;2023-08-21T05:37:28;2;2;
80499;PMS5003;69823;54.120;-4.710;2023-08-21T05:39:54;2;1;
80499;PMS5003;69823;54.120;-4.710;2023-08-21T05:42:19;2;2;
80499;PMS5003;69823;54.120;-4.710;2023-08-21T05:44:45;1;1;
80499;PMS5003;69823;54.120;-4.710;2023-08-21T05:47:11;1;1;
80499;PMS5003;69823;54.120;-4.710;2023-08-21T05:49:36;0;0;
80499;PMS5003;69823;54.120;-4.710;2023-08-21T05:52:02;1;1;
80499;PMS5003;69823;54.120;-4.710;2023-08-21T05:54:28;2;1;
80499;PMS5003;69823;54.120;-4.710;2023-08-21T05:56:53;1;1;
80499;PMS5003;69823;54.120;-4.710;2023-08-21T06:01:45;0;0;
80499;PMS5003;69823;54.120;-4.710;2023-08-21T06:04:10;1;1;
80499;PMS5003;69823;54.120;-4.710;2023-08-21T06:06:36;1;1;
80499;PMS5003;69823;54.120;-4.710;2023-08-21T06:09:02;2;0;
80499;PMS5003;69823;54.120;-4.710;2023-08-21T06:11:27;1;0;
80499;PMS5003;69823;54.120;-4.710;2023-08-21T06:13:53;2;1;
80499;PMS5003;69823;54.120;-4.710;2023-08-21T06:16:19;0;0;
80499;PMS5003;69823;54.120;-4.710;2023-08-21T06:18:44;1;1;
80499;PMS5003;69823;54.120;-4.710;2023-08-21T06:21:10;3;3;
80499;PMS5003;69823;54.120;-4.710;2023-08-21T06:23:36;2;2;
80499;PMS5003;69823;54.120;-4.710;2023-08-21T06:26:01;0;0;
80499;PMS5003;69823;54.120;-4.710;2023-08-21T06:28:27;1;1;
80499;PMS5003;69823;54.120;-4.710;2023-08-21T06:30:55;1;1;
80499;PMS5003;69823;54.120;-4.710;2023-08-21T06:33:18;0;0;
80499;PMS5003;69823;54.120;-4.710;2023-08-21T06:35:44;1;1;
80499;PMS5003;69823;54.120;-4.710;2023-08-21T06:38:10;0;0;
80499;PMS5003;69823;54.120;-4.710;2023-08-21T06:40:35;0;0;
80499;PMS5003;69823;54.120;-4.710;2023-08-21T06:43:01;0;0;
80499;PMS5003;69823;54.120;-4.710;2023-08-21T06:45:27;0;0;
80499;PMS5003;69823;54.120;-4.710;2023-08-21T06:47:52;2;1;
80499;PMS5003;69823;54.120;-4.710;2023-08-21T06:50:18;1;1;
80499;PMS5003;69823;54.120;-4.710;2023-08-21T06:52:44;0;0;
80499;PMS5003;69823;54.120;-4.710;2023-08-21T06:55:09;0;0;
80499;PMS5003;69823;54.120;-4.710;2023-08-21T06:57:35;0;0;
80499;PMS5003;69823;54.120;-4.710;2023-08-21T07:00:01;1;1;
80499;PMS5003;69823;54.120;-4.710;2023-08-21T07:02:26;1;1;
80499;PMS5003;69823;54.120;-4.710;2023-08-21T07:04:52;0;0;
80499;PMS5003;69823;54.120;-4.710;2023-08-21T07:07:18;0;0;
80499;PMS5003;69823;54.120;-4.710;2023-08-21T07:09:43;1;1;
80499;PMS5003;69823;54.120;-4.710;2023-08-21T07:12:09;0;0;
80499;PMS5003;69823;54.120;-4.710;2023-08-21T07:14:35;0;0;
80499;PMS5003;69823;54.120;-4.710;2023-08-21T07:17:01;0;0;
80499;PMS5003;69823;54.120;-4.710;2023-08-21T07:19:26;2;2;
80499;PMS5003;69823;54.120;-4.710;2023-08-21T07:21:52;1;1;
80499;PMS5003;69823;54.120;-4.710;2023-08-21T07:24:18;1;1;
80499;PMS5003;69823;54.120;-4.710;2023-08-21T07:26:43;1;0;
80499;PMS5003;69823;54.120;-4.710;2023-08-21T07:29:09;0;0;
80499;PMS5003;69823;54.120;-4.710;2023-08-21T07:31:35;0;0;
80499;PMS5003;69823;54.120;-4.710;2023-08-21T07:34:00;1;0;
80499;PMS5003;69823;54.120;-4.710;2023-08-21T07:36:26;1;1;
80499;PMS5003;69823;54.120;-4.710;2023-08-21T07:38:52;1;1;
80499;PMS5003;69823;54.120;-4.710;2023-08-21T07:41:17;2;2;
80499;PMS5003;69823;54.120;-4.710;2023-08-21T07:43:43;0;0;
80499;PMS5003;69823;54.120;-4.710;2023-08-21T07:46:10;3;2;
80499;PMS5003;69823;54.120;-4.710;2023-08-21T07:48:35;1;1;
80499;PMS5003;69823;54.120;-4.710;2023-08-21T07:51:00;1;1;
80499;PMS5003;69823;54.120;-4.710;2023-08-21T07:53:26;0;0;
80499;PMS5003;69823;54.120;-4.710;2023-08-21T07:55:51;1;0;
80499;PMS5003;69823;54.120;-4.710;2023-08-21T07:58:17;2;1;
80499;PMS5003;69823;54.120;-4.710;2023-08-21T08:00:43;1;1;
80499;PMS5003;69823;54.120;-4.710;2023-08-21T08:03:08;0;0;
80499;PMS5003;69823;54.120;-4.710;2023-08-21T08:05:34;1;1;
80499;PMS5003;69823;54.120;-4.710;2023-08-21T08:08:00;0;0;
80499;PMS5003;69823;54.120;-4.710;2023-08-21T08:10:25;1;1;
80499;PMS5003;69823;54.120;-4.710;2023-08-21T08:12:51;0;0;
80499;PMS5003;69823;54.120;-4.710;2023-08-21T08:15:17;0;0;
80499;PMS5003;69823;54.120;-4.710;2023-08-21T08:17:43;0;0;
80499;PMS5003;69823;54.120;-4.710;2023-08-21T08:20:09;1;1;
80499;PMS5003;69823;54.120;-4.710;2023-08-21T08:22:34;2;1;
80499;PMS5003;69823;54.120;-4.710;2023-08-21T08:25:00;1;1;
80499;PMS5003;69823;54.120;-4.710;2023-08-21T08:27:25;0;0;
80499;PMS5003;69823;54.120;-4.710;2023-08-21T08:29:51;1;1;
80499;PMS5003;69823;54.120;-4.710;2023-08-21T08:32:17;1;1;
80499;PMS5003;69823;54.120;-4.710;2023-08-21T08:34:42;0;0;
80499;PMS5003;69823;54.120;-4.710;2023-08-21T08:37:08;1;1;
80499;PMS5003;69823;54.120;-4.710;2023-08-21T08:39:34;2;1;
80499;PMS5003;69823;54.120;-4.710;2023-08-21T08:42:02;1;1;
80499;PMS5003;69823;54.120;-4.710;2023-08-21T08:44:25;1;1;
80499;PMS5003;69823;54.120;-4.710;2023-08-21T08:46:51;1;1;
80499;PMS5003;69823;54.120;-4.710;2023-08-21T08:49:16;0;0;
80499;PMS5003;69823;54.120;-4.710;2023-08-21T08:51:42;1;1;
80499;PMS5003;69823;54.120;-4.710;2023-08-21T08:54:08;2;1;
80499;PMS5003;69823;54.120;-4.710;2023-08-21T08:56:33;1;1;
80499;PMS5003;69823;54.120;-4.710;2023-08-21T08:58:59;2;1;
80499;PMS5003;69823;54.120;-4.710;2023-08-21T09:01:25;2;2;
80499;PMS5003;69823;54.120;-4.710;2023-08-21T09:03:50;1;1;
80499;PMS5003;69823;54.120;-4.710;2023-08-21T09:06:16;1;1;
80499;PMS5003;69823;54.120;-4.710;2023-08-21T09:08:45;3;3;
80499;PMS5003;69823;54.120;-4.710;2023-08-21T09:11:07;2;2;
80499;PMS5003;69823;54.120;-4.710;2023-08-21T09:13:33;4;4;
80499;PMS5003;69823;54.120;-4.710;2023-08-21T09:15:59;5;5;
80499;PMS5003;69823;54.120;-4.710;2023-08-21T09:18:24;4;4;
80499;PMS5003;69823;54.120;-4.710;2023-08-21T09:20:50;6;5;
80499;PMS5003;69823;54.120;-4.710;2023-08-21T09:23:16;9;9;
80499;PMS5003;69823;54.120;-4.710;2023-08-21T09:25:43;6;6;
80499;PMS5003;69823;54.120;-4.710;2023-08-21T09:28:07;7;7;
80499;PMS5003;69823;54.120;-4.710;2023-08-21T09:32:59;12;12;
80499;PMS5003;69823;54.120;-4.710;2023-08-21T09:35:24;17;17;
80499;PMS5003;69823;54.120;-4.710;2023-08-21T09:37:50;24;24;
80499;PMS5003;69823;54.120;-4.710;2023-08-21T09:40:15;24;23;
80499;PMS5003;69823;54.120;-4.710;2023-08-21T09:42:41;32;31;
80499;PMS5003;69823;54.120;-4.710;2023-08-21T09:45:06;34;34;
80499;PMS5003;69823;54.120;-4.710;2023-08-21T09:47:31;30;29;
80499;PMS5003;69823;54.120;-4.710;2023-08-21T09:49:57;34;34;
80499;PMS5003;69823;54.120;-4.710;2023-08-21T09:52:23;27;27;
80499;PMS5003;69823;54.120;-4.710;2023-08-21T09:54:48;34;34;
80499;PMS5003;69823;54.120;-4.710;2023-08-21T09:57:14;31;31;
80499;PMS5003;69823;54.120;-4.710;2023-08-21T09:59:39;29;29;
80499;PMS5003;69823;54.120;-4.710;2023-08-21T10:02:05;36;36;
80499;PMS5003;69823;54.120;-4.710;2023-08-21T10:04:31;25;25;
80499;PMS5003;69823;54.120;-4.710;2023-08-21T10:06:56;28;28;
80499;PMS5003;69823;54.120;-4.710;2023-08-21T10:09:21;28;27;
80499;PMS5003;69823;54.120;-4.710;2023-08-21T10:11:47;29;28;
80499;PMS5003;69823;54.120;-4.710;2023-08-21T10:14:13;29;28;
80499;PMS5003;69823;54.120;-4.710;2023-08-21T10:16:38;27;26;
80499;PMS5003;69823;54.120;-4.710;2023-08-21T10:19:04;27;26;
80499;PMS5003;69823;54.120;-4.710;2023-08-21T10:21:29;22;22;
80499;PMS5003;69823;54.120;-4.710;2023-08-21T10:23:55;21;21;
80499;PMS5003;69823;54.120;-4.710;2023-08-21T10:26:21;22;22;
80499;PMS5003;69823;54.120;-4.710;2023-08-21T10:28:48;18;18;
80499;PMS5003;69823;54.120;-4.710;2023-08-21T10:33:46;18;17;
80499;PMS5003;69823;54.120;-4.710;2023-08-21T10:36:03;19;19;
80499;PMS5003;69823;54.120;-4.710;2023-08-21T10:38:29;15;15;
80499;PMS5003;69823;54.120;-4.710;2023-08-21T10:48:11;15;15;
80499;PMS5003;69823;54.120;-4.710;2023-08-21T10:50:37;12;12;
80499;PMS5003;69823;54.120;-4.710;2023-08-21T10:53:02;13;12;
80499;PMS5003;69823;54.120;-4.710;2023-08-21T10:55:29;11;11;
80499;PMS5003;69823;54.120;-4.710;2023-08-21T10:57:53;12;12;
80499;PMS5003;69823;54.120;-4.710;2023-08-21T11:00:19;9;9;
80499;PMS5003;69823;54.120;-4.710;2023-08-21T11:02:45;12;11;
80499;PMS5003;69823;54.120;-4.710;2023-08-21T11:05:10;12;12;
80499;PMS5003;69823;54.120;-4.710;2023-08-21T11:07:36;10;10;
80499;PMS5003;69823;54.120;-4.710;2023-08-21T11:10:02;10;9;
80499;PMS5003;69823;54.120;-4.710;2023-08-21T11:12:27;10;8;
80499;PMS5003;69823;54.120;-4.710;2023-08-21T11:14:53;11;10;
80499;PMS5003;69823;54.120;-4.710;2023-08-21T11:17:19;9;7;
80499;PMS5003;69823;54.120;-4.710;2023-08-21T11:19:44;8;7;
80499;PMS5003;69823;54.120;-4.710;2023-08-21T11:22:10;7;6;
80499;PMS5003;69823;54.120;-4.710;2023-08-21T11:24:39;5;5;
80499;PMS5003;69823;54.120;-4.710;2023-08-21T11:27:01;6;5;
80499;PMS5003;69823;54.120;-4.710;2023-08-21T11:29:27;7;7;
80499;PMS5003;69823;54.120;-4.710;2023-08-21T11:31:53;6;6;
80499;PMS5003;69823;54.120;-4.710;2023-08-21T11:34:18;5;4;
80499;PMS5003;69823;54.120;-4.710;2023-08-21T11:36:44;5;5;
80499;PMS5003;69823;54.120;-4.710;2023-08-21T11:39:10;4;4;
80499;PMS5003;69823;54.120;-4.710;2023-08-21T11:44:01;4;4;
80499;PMS5003;69823;54.120;-4.710;2023-08-21T11:46:27;5;4;
80499;PMS5003;69823;54.120;-4.710;2023-08-21T11:48:53;3;3;
80499;PMS5003;69823;54.120;-4.710;2023-08-21T11:51:18;7;5;
80499;PMS5003;69823;54.120;-4.710;2023-08-21T11:53:44;2;2;
80499;PMS5003;69823;54.120;-4.710;2023-08-21T11:56:11;4;3;
80499;PMS5003;69823;54.120;-4.710;2023-08-21T11:58:37;4;4;
80499;PMS5003;69823;54.120;-4.710;2023-08-21T12:01:02;3;3;
80499;PMS5003;69823;54.120;-4.710;2023-08-21T12:03:27;3;3;
80499;PMS5003;69823;54.120;-4.710;2023-08-21T12:05:52;4;3;
80499;PMS5003;69823;54.120;-4.710;2023-08-21T12:08:18;5;5;
80499;PMS5003;69823;54.120;-4.710;2023-08-21T12:10:43;0;0;
80499;PMS5003;69823;54.120;-4.710;2023-08-21T12:13:09;3;3;
80499;PMS5003;69823;54.120;-4.710;2023-08-21T12:15:35;2;1;
80499;PMS5003;69823;54.120;-4.710;2023-08-21T12:18:00;2;2;
80499;PMS5003;69823;54.120;-4.710;2023-08-21T12:20:26;5;3;
80499;PMS5003;69823;54.120;-4.710;2023-08-21T12:22:52;3;2;
80499;PMS5003;69823;54.120;-4.710;2023-08-21T12:25:18;2;2;
80499;PMS5003;69823;54.120;-4.710;2023-08-21T12:27:43;3;3;
80499;PMS5003;69823;54.120;-4.710;2023-08-21T12:30:09;2;2;
80499;PMS5003;69823;54.120;-4.710;2023-08-21T12:32:35;1;1;
80499;PMS5003;69823;54.120;-4.710;2023-08-21T12:35:00;3;2;
80499;PMS5003;69823;54.120;-4.710;2023-08-21T12:37:26;1;1;
80499;PMS5003;69823;54.120;-4.710;2023-08-21T12:39:53;1;1;
80499;PMS5003;69823;54.120;-4.710;2023-08-21T12:42:17;2;1;
80499;PMS5003;69823;54.120;-4.710;2023-08-21T12:44:43;2;2;
80499;PMS5003;69823;54.120;-4.710;2023-08-21T12:47:09;2;2;
80499;PMS5003;69823;54.120;-4.710;2023-08-21T12:49:34;3;2;
80499;PMS5003;69823;54.120;-4.710;2023-08-21T12:52:00;3;2;
80499;PMS5003;69823;54.120;-4.710;2023-08-21T12:54:26;1;1;
80499;PMS5003;69823;54.120;-4.710;2023-08-21T12:56:51;2;2;
80499;PMS5003;69823;54.120;-4.710;2023-08-21T12:59:17;1;1;
80499;PMS5003;69823;54.120;-4.710;2023-08-21T13:01:43;0;0;
80499;PMS5003;69823;54.120;-4.710;2023-08-21T13:04:08;1;1;
80499;PMS5003;69823;54.120;-4.710;2023-08-21T13:06:34;2;1;
80499;PMS5003;69823;54.120;-4.710;2023-08-21T13:09:00;1;1;
80499;PMS5003;69823;54.120;-4.710;2023-08-21T13:11:25;4;2;
80499;PMS5003;69823;54.120;-4.710;2023-08-21T13:13:51;3;1;
80499;PMS5003;69823;54.120;-4.710;2023-08-21T13:16:17;0;0;
80499;PMS5003;69823;54.120;-4.710;2023-08-21T13:18:42;3;2;
80499;PMS5003;69823;54.120;-4.710;2023-08-21T13:21:08;0;0;
80499;PMS5003;69823;54.120;-4.710;2023-08-21T13:23:34;2;1;
80499;PMS5003;69823;54.120;-4.710;2023-08-21T13:25:59;3;2;
80499;PMS5003;69823;54.120;-4.710;2023-08-21T13:28:25;2;2;
80499;PMS5003;69823;54.120;-4.710;2023-08-21T13:30:51;0;0;
80499;PMS5003;69823;54.120;-4.710;2023-08-21T13:33:16;2;1;
80499;PMS5003;69823;54.120;-4.710;2023-08-21T13:35:42;4;2;
80499;PMS5003;69823;54.120;-4.710;2023-08-21T13:38:08;1;1;
80499;PMS5003;69823;54.120;-4.710;2023-08-21T13:40:33;1;1;
80499;PMS5003;69823;54.120;-4.710;2023-08-21T13:42:59;1;1;
80499;PMS5003;69823;54.120;-4.710;2023-08-21T13:45:25;3;2;
80499;PMS5003;69823;54.120;-4.710;2023-08-21T13:47:50;3;1;
80499;PMS5003;69823;54.120;-4.710;2023-08-21T13:50:17;2;2;
80499;PMS5003;69823;54.120;-4.710;2023-08-21T13:52:42;3;3;
80499;PMS5003;69823;54.120;-4.710;2023-08-21T13:55:08;1;1;
80499;PMS5003;69823;54.120;-4.710;2023-08-21T13:57:34;0;0;
80499;PMS5003;69823;54.120;-4.710;2023-08-21T13:59:59;1;1;
80499;PMS5003;69823;54.120;-4.710;2023-08-21T14:02:24;2;2;
80499;PMS5003;69823;54.120;-4.710;2023-08-21T14:04:50;1;1;
80499;PMS5003;69823;54.120;-4.710;2023-08-21T14:07:16;2;1;
80499;PMS5003;69823;54.120;-4.710;2023-08-21T14:09:41;3;2;
80499;PMS5003;69823;54.120;-4.710;2023-08-21T14:12:07;1;1;
80499;PMS5003;69823;54.120;-4.710;2023-08-21T14:14:33;2;2;
80499;PMS5003;69823;54.120;-4.710;2023-08-21T14:16:58;1;1;
80499;PMS5003;69823;54.120;-4.710;2023-08-21T14:19:24;1;1;
80499;PMS5003;69823;54.120;-4.710;2023-08-21T14:21:49;1;1;
80499;PMS5003;69823;54.120;-4.710;2023-08-21T14:24:15;2;2;
80499;PMS5003;69823;54.120;-4.710;2023-08-21T14:26:41;1;1;
80499;PMS5003;69823;54.120;-4.710;2023-08-21T14:29:06;1;1;
80499;PMS5003;69823;54.120;-4.710;2023-08-21T14:31:32;1;1;
80499;PMS5003;69823;54.120;-4.710;2023-08-21T14:33:58;1;1;
80499;PMS5003;69823;54.120;-4.710;2023-08-21T14:36:23;1;1;
80499;PMS5003;69823;54.120;-4.710;2023-08-21T14:38:49;2;1;
80499;PMS5003;69823;54.120;-4.710;2023-08-21T14:41:15;3;2;
80499;PMS5003;69823;54.120;-4.710;2023-08-21T14:43:40;2;2;
80499;PMS5003;69823;54.120;-4.710;2023-08-21T14:46:06;1;1;
80499;PMS5003;69823;54.120;-4.710;2023-08-21T14:48:32;2;2;
80499;PMS5003;69823;54.120;-4.710;2023-08-21T14:50:57;3;1;
80499;PMS5003;69823;54.120;-4.710;2023-08-21T14:53:22;1;1;
80499;PMS5003;69823;54.120;-4.710;2023-08-21T14:55:48;1;1;
80499;PMS5003;69823;54.120;-4.710;2023-08-21T14:58:14;2;2;
80499;PMS5003;69823;54.120;-4.710;2023-08-21T15:00:39;0;0;
80499;PMS5003;69823;54.120;-4.710;2023-08-21T15:03:05;2;2;
80499;PMS5003;69823;54.120;-4.710;2023-08-21T15:05:31;0;0;
80499;PMS5003;69823;54.120;-4.710;2023-08-21T15:07:56;2;2;
80499;PMS5003;69823;54.120;-4.710;2023-08-21T15:10:22;0;0;
80499;PMS5003;69823;54.120;-4.710;2023-08-21T15:12:48;1;1;
80499;PMS5003;69823;54.120;-4.710;2023-08-21T15:15:13;2;1;
80499;PMS5003;69823;54.120;-4.710;2023-08-21T15:17:39;1;0;
80499;PMS5003;69823;54.120;-4.710;2023-08-21T15:20:05;1;1;
80499;PMS5003;69823;54.120;-4.710;2023-08-21T15:22:30;2;2;
80499;PMS5003;69823;54.120;-4.710;2023-08-21T15:24:56;2;2;
80499;PMS5003;69823;54.120;-4.710;2023-08-21T15:27:21;2;2;
80499;PMS5003;69823;54.120;-4.710;2023-08-21T15:29:47;1;1;
80499;PMS5003;69823;54.120;-4.710;2023-08-21T15:32:12;3;2;
80499;PMS5003;69823;54.120;-4.710;2023-08-21T15:34:38;1;1;
80499;PMS5003;69823;54.120;-4.710;2023-08-21T15:37:04;1;1;
80499;PMS5003;69823;54.120;-4.710;2023-08-21T15:39:29;4;2;
80499;PMS5003;69823;54.120;-4.710;2023-08-21T15:41:55;2;2;
80499;PMS5003;69823;54.120;-4.710;2023-08-21T15:44:20;3;2;
80499;PMS5003;69823;54.120;-4.710;2023-08-21T15:46:46;1;1;
80499;PMS5003;69823;54.120;-4.710;2023-08-21T15:49:12;1;1;
80499;PMS5003;69823;54.120;-4.710;2023-08-21T15:51:37;2;2;
80499;PMS5003;69823;54.120;-4.710;2023-08-21T15:54:03;2;2;
80499;PMS5003;69823;54.120;-4.710;2023-08-21T15:56:29;2;1;
80499;PMS5003;69823;54.120;-4.710;2023-08-21T15:58:54;2;2;
80499;PMS5003;69823;54.120;-4.710;2023-08-21T16:01:20;2;2;
80499;PMS5003;69823;54.120;-4.710;2023-08-21T16:03:46;3;2;
80499;PMS5003;69823;54.120;-4.710;2023-08-21T16:06:11;3;2;
80499;PMS5003;69823;54.120;-4.710;2023-08-21T16:08:37;2;2;
80499;PMS5003;69823;54.120;-4.710;2023-08-21T16:11:03;3;3;
80499;PMS5003;69823;54.120;-4.710;2023-08-21T16:13:28;2;1;
80499;PMS5003;69823;54.120;-4.710;2023-08-21T16:15:54;2;1;
80499;PMS5003;69823;54.120;-4.710;2023-08-21T16:18:20;1;1;
80499;PMS5003;69823;54.120;-4.710;2023-08-21T16:20:45;2;2;
80499;PMS5003;69823;54.120;-4.710;2023-08-21T16:23:11;1;1;
80499;PMS5003;69823;54.120;-4.710;2023-08-21T16:25:37;1;1;
80499;PMS5003;69823;54.120;-4.710;2023-08-21T16:28:02;0;0;
80499;PMS5003;69823;54.120;-4.710;2023-08-21T16:30:28;1;1;
80499;PMS5003;69823;54.120;-4.710;2023-08-21T16:32:54;2;2;
80499;PMS5003;69823;54.120;-4.710;2023-08-21T16:35:19;1;1;